createdAt,value
2018-02-22T11:40:49.076Z,8.10
2018-02-22T11:43:16.137Z,9.60
2018-02-22T11:45:41.998Z,8.97
2018-02-22T11:48:07.911Z,9.40
2018-02-22T11:50:33.776Z,9.33
2018-02-22T11:52:59.807Z,9.87
2018-02-22T11:55:25.740Z,9.60
2018-02-22T11:57:51.629Z,9.13
2018-02-22T12:00:17.480Z,8.67
2018-02-22T12:02:43.357Z,9.03
2018-02-22T12:05:09.453Z,8.57
2018-02-22T12:07:35.350Z,9.03
2018-02-22T12:10:01.340Z,9.10
2018-02-22T12:12:27.239Z,9.33
2018-02-22T12:14:53.126Z,8.73
2018-02-22T12:17:19.162Z,8.47
2018-02-22T12:19:45.036Z,7.87
2018-02-22T12:22:10.917Z,8.57
2018-02-22T12:24:37.230Z,7.60
2018-02-22T12:27:03.102Z,8.57
2018-02-22T12:29:29.084Z,9.47
2018-02-22T12:31:55.024Z,8.00
2018-02-22T12:34:20.895Z,8.80
2018-02-22T12:36:46.746Z,7.80
2018-02-22T12:39:12.710Z,8.10
2018-02-22T12:41:38.748Z,7.77
2018-02-22T12:44:04.701Z,8.97
2018-02-22T12:46:30.601Z,9.73
2018-02-22T12:48:56.464Z,6.80
2018-02-22T12:51:22.338Z,7.97
2018-02-22T12:53:48.414Z,6.70
2018-02-22T12:56:15.312Z,7.37
2018-02-22T12:58:41.171Z,7.40
2018-02-22T13:01:07.068Z,7.10
2018-02-22T13:03:32.946Z,7.10
2018-02-22T13:05:58.965Z,5.93
2018-02-22T13:08:24.888Z,6.67
2018-02-22T13:10:50.753Z,6.33
2018-02-22T13:13:16.613Z,5.37
2018-02-22T13:15:42.562Z,4.50
2018-02-22T13:18:08.570Z,4.93
2018-02-22T13:20:34.482Z,5.00
2018-02-22T13:23:00.393Z,5.10
2018-02-22T13:25:26.253Z,4.13
2018-02-22T13:27:52.116Z,4.83
2018-02-22T13:30:18.149Z,5.27
2018-02-22T13:32:56.330Z,5.07
2018-02-22T13:35:22.341Z,5.03
2018-02-22T13:40:53.157Z,6.97
2018-02-22T13:43:19.079Z,6.43
2018-02-22T13:45:44.941Z,7.63
2018-02-22T13:48:10.958Z,6.73
2018-02-22T13:50:49.189Z,7.63
2018-02-22T13:53:15.250Z,6.80
2018-02-22T13:55:41.108Z,6.87
2018-02-22T13:58:06.970Z,7.07
2018-02-22T14:00:45.154Z,7.47
2018-02-22T14:03:11.116Z,7.30
2018-02-22T14:05:37.109Z,6.83
2018-02-22T14:08:03.115Z,7.27
2018-02-22T14:10:28.976Z,7.00
2018-02-22T14:12:54.871Z,6.83
2018-02-22T14:15:20.806Z,7.57
2018-02-22T14:17:46.814Z,7.83
2018-02-22T14:20:12.676Z,8.83
2018-02-22T14:22:38.637Z,7.97
2018-02-22T14:25:04.505Z,8.07
2018-02-22T14:27:30.380Z,8.23
2018-02-22T14:29:56.427Z,8.20
2018-02-22T14:32:22.309Z,7.30
2018-02-22T14:34:48.206Z,7.17
2018-02-22T14:37:14.138Z,7.63
2018-02-22T14:39:39.997Z,7.27
2018-02-22T14:42:05.988Z,7.30
2018-02-22T14:44:31.910Z,8.00
2018-02-22T14:46:57.796Z,8.50
2018-02-22T14:49:23.666Z,7.60
2018-02-22T14:51:49.963Z,7.57
2018-02-22T14:54:16.004Z,6.37
2018-02-22T14:56:41.888Z,6.47
2018-02-22T14:59:07.867Z,6.80
2018-02-22T15:01:33.719Z,23.43
2018-02-22T15:03:59.585Z,23.87
2018-02-22T15:06:25.951Z,7.50
2018-02-22T15:08:51.826Z,6.80
2018-02-22T15:11:17.738Z,7.17
2018-02-22T15:13:43.692Z,11.70
2018-02-22T15:16:09.581Z,11.73
2018-02-22T15:18:35.596Z,6.40
2018-02-22T15:21:01.499Z,6.00
2018-02-22T15:23:27.362Z,6.07
2018-02-22T15:25:53.229Z,5.30
2018-02-22T15:28:19.438Z,4.83
2018-02-22T15:30:45.440Z,5.23
2018-02-22T15:33:11.300Z,4.57
2018-02-22T15:35:37.192Z,4.83
2018-02-22T15:38:03.071Z,4.67
2018-02-22T15:40:28.936Z,4.50
2018-02-22T15:42:54.994Z,4.60
2018-02-22T15:45:20.856Z,5.37
2018-02-22T15:47:47.646Z,5.27
2018-02-22T15:50:13.650Z,5.53
2018-02-22T15:52:39.536Z,5.13
2018-02-22T15:55:05.528Z,4.90
2018-02-22T15:57:31.438Z,5.07
2018-02-22T15:59:57.284Z,4.80
2018-02-22T16:02:23.154Z,5.27
2018-02-22T16:04:49.045Z,5.17
2018-02-22T16:07:15.112Z,4.87
2018-02-22T16:09:41.008Z,5.47
2018-02-22T16:12:06.900Z,5.53
2018-02-22T16:14:32.744Z,6.90
2018-02-22T16:16:58.584Z,8.13
2018-02-22T16:19:24.596Z,11.53
2018-02-22T16:21:50.457Z,7.83
2018-02-22T16:24:16.305Z,12.20
2018-02-22T16:26:42.243Z,15.77
2018-02-22T16:29:08.089Z,14.20
2018-02-22T16:31:34.083Z,31.27
2018-02-22T16:33:59.972Z,18.27
2018-02-22T16:36:25.912Z,16.97
2018-02-22T16:38:51.787Z,8.20
2018-02-22T16:41:17.716Z,6.60
2018-02-22T16:43:43.726Z,6.20
2018-02-22T16:46:09.580Z,6.30
2018-02-22T16:48:35.470Z,7.33
2018-02-22T16:51:01.338Z,7.07
2018-02-22T16:53:27.230Z,7.17
2018-02-22T16:55:53.335Z,6.43
2018-02-22T16:58:19.268Z,6.60
2018-02-22T17:00:45.156Z,7.90
2018-02-22T17:03:11.727Z,7.00
2018-02-22T17:05:37.639Z,7.93
2018-02-22T17:08:03.636Z,6.83
2018-02-22T17:10:29.563Z,6.73
2018-02-22T17:12:55.404Z,6.50
2018-02-22T17:15:21.320Z,6.37
2018-02-22T17:17:47.222Z,6.17
2018-02-22T17:20:13.215Z,6.60
2018-02-22T17:22:39.096Z,6.47
2018-02-22T17:25:05.032Z,6.47
2018-02-22T17:27:37.088Z,6.60
2018-02-22T17:30:09.140Z,6.40
2018-02-22T17:32:35.080Z,5.83
2018-02-22T17:35:00.958Z,5.60
2018-02-22T17:37:27.065Z,6.10
2018-02-22T17:40:02.926Z,5.90
2018-02-22T17:42:30.751Z,5.60
2018-02-22T17:44:56.775Z,5.47
2018-02-22T17:47:22.761Z,6.00
2018-02-22T17:49:48.697Z,6.47
2018-02-22T17:52:14.574Z,6.20
2018-02-22T17:54:42.378Z,6.83
2018-02-22T17:57:09.676Z,6.47
2018-02-22T17:59:36.176Z,5.87
2018-02-22T18:02:02.095Z,7.27
2018-02-22T18:04:28.648Z,6.27
2018-02-22T18:06:57.923Z,5.67
2018-02-22T18:09:23.958Z,5.77
2018-02-22T18:11:49.882Z,5.43
2018-02-22T18:14:15.782Z,5.80
2018-02-22T18:16:41.731Z,5.83
2018-02-22T18:19:07.685Z,5.00
2018-02-22T18:21:33.693Z,5.73
2018-02-22T18:23:59.540Z,5.60
2018-02-22T18:26:25.452Z,6.10
2018-02-22T18:28:51.334Z,5.63
2018-02-22T18:31:17.204Z,6.17
2018-02-22T18:33:43.278Z,6.20
2018-02-22T18:36:09.160Z,6.10
2018-02-22T18:38:41.134Z,5.67
2018-02-22T18:41:07.058Z,5.90
2018-02-22T18:43:39.288Z,6.23
2018-02-22T18:46:05.302Z,6.30
2018-02-22T18:48:31.395Z,6.23
2018-02-22T18:50:57.725Z,6.40
2018-02-22T18:53:23.612Z,6.00
2018-02-22T18:55:49.931Z,6.37
2018-02-22T18:58:16.417Z,7.07
2018-02-22T19:00:42.296Z,6.50
2018-02-22T19:03:08.197Z,7.03
2018-02-22T19:05:34.100Z,7.27
2018-02-22T19:07:59.948Z,6.83
2018-02-22T19:10:25.992Z,7.13
2018-02-22T19:12:51.840Z,7.00
2018-02-22T19:15:17.694Z,7.10
2018-02-22T19:17:43.622Z,6.80
2018-02-22T19:20:09.497Z,7.07
2018-02-22T19:22:35.533Z,7.30
2018-02-22T19:25:01.454Z,7.30
2018-02-22T19:27:27.325Z,6.80
2018-02-22T19:29:53.178Z,6.57
2018-02-22T19:32:19.093Z,6.90
2018-02-22T19:34:45.224Z,6.40
2018-02-22T19:37:11.097Z,6.57
2018-02-22T19:39:37.339Z,7.07
2018-02-22T19:42:03.202Z,6.00
2018-02-22T19:44:29.057Z,7.00
2018-02-22T19:46:55.122Z,6.90
2018-02-22T19:49:20.980Z,8.17
2018-02-22T19:51:46.851Z,7.33
2018-02-22T19:54:12.750Z,7.70
2018-02-22T19:56:38.605Z,7.97
2018-02-22T19:59:04.613Z,8.03
2018-02-22T20:01:30.524Z,7.87
2018-02-22T20:03:56.381Z,7.93
2018-02-22T20:06:22.243Z,8.47
2018-02-22T20:08:48.194Z,9.30
2018-02-22T20:11:14.225Z,8.17
2018-02-22T20:13:40.150Z,8.50
2018-02-22T20:16:06.070Z,7.67
2018-02-22T20:18:31.924Z,8.40
2018-02-22T20:20:57.972Z,8.23
2018-02-22T20:23:24.036Z,7.77
2018-02-22T20:25:49.889Z,8.87
2018-02-22T20:28:15.766Z,7.90
2018-02-22T20:30:41.753Z,7.23
2018-02-22T20:33:07.638Z,8.07
2018-02-22T20:35:33.858Z,7.93
2018-02-22T20:37:59.765Z,8.60
2018-02-22T20:40:25.611Z,8.93
2018-02-22T20:42:51.526Z,9.27
2018-02-22T20:45:17.555Z,9.23
2018-02-22T20:47:43.584Z,8.63
2018-02-22T20:50:09.455Z,8.63
2018-02-22T20:52:37.318Z,9.60
2018-02-22T20:55:07.216Z,8.77
2018-02-22T20:57:33.094Z,8.90
2018-02-22T20:59:59.213Z,9.53
2018-02-22T21:02:25.093Z,8.37
2018-02-22T21:04:50.969Z,9.13
2018-02-22T21:07:16.880Z,9.73
2018-02-22T21:09:42.744Z,8.97
2018-02-22T21:12:08.741Z,10.00
2018-02-22T21:14:34.658Z,9.10
2018-02-22T21:17:00.534Z,9.83
2018-02-22T21:19:26.409Z,9.57
2018-02-22T21:21:53.181Z,8.67
2018-02-22T21:24:19.185Z,9.37
2018-02-22T21:26:45.050Z,8.87
2018-02-22T21:29:10.950Z,9.77
2018-02-22T21:31:36.814Z,9.30
2018-02-22T21:34:02.664Z,9.33
2018-02-22T21:36:28.714Z,8.53
2018-02-22T21:38:54.583Z,8.07
2018-02-22T21:41:20.441Z,8.33
2018-02-22T21:43:46.351Z,8.83
2018-02-22T21:46:12.218Z,9.07
2018-02-22T21:48:38.276Z,8.93
2018-02-22T21:51:04.190Z,9.20
2018-02-22T21:53:30.075Z,9.50
2018-02-22T21:55:55.931Z,9.50
2018-02-22T21:58:21.848Z,9.73
2018-02-22T22:00:47.840Z,10.83
2018-02-22T22:03:13.728Z,9.00
2018-02-22T22:05:39.658Z,8.53
2018-02-22T22:08:05.526Z,8.17
2018-02-22T22:10:31.394Z,9.50
2018-02-22T22:12:57.452Z,10.67
2018-02-22T22:15:23.379Z,10.53
2018-02-22T22:17:49.227Z,10.47
2018-02-22T22:20:15.124Z,9.90
2018-02-22T22:22:40.985Z,9.70
2018-02-22T22:25:07.027Z,11.63
2018-02-22T22:27:32.917Z,12.03
2018-02-22T22:29:58.767Z,10.93
2018-02-22T22:32:25.608Z,10.47
2018-02-22T22:34:51.524Z,11.43
2018-02-22T22:37:17.524Z,10.97
2018-02-22T22:39:43.384Z,10.90
2018-02-22T22:42:09.624Z,9.50
2018-02-22T22:44:35.493Z,10.00
2018-02-22T22:47:01.343Z,9.63
2018-02-22T22:49:27.392Z,9.77
2018-02-22T22:51:53.277Z,9.80
2018-02-22T22:54:19.148Z,9.50
2018-02-22T22:56:45.052Z,9.20
2018-02-22T22:59:10.910Z,10.67
2018-02-22T23:01:37.740Z,10.83
2018-02-22T23:04:03.637Z,10.17
2018-02-22T23:06:29.548Z,9.80
2018-02-22T23:08:55.410Z,10.37
2018-02-22T23:11:21.642Z,10.47
2018-02-22T23:13:47.656Z,11.20
2018-02-22T23:16:13.548Z,10.33
2018-02-22T23:18:39.463Z,9.20
2018-02-22T23:21:05.304Z,9.63
2018-02-22T23:23:31.221Z,9.60
2018-02-22T23:25:57.299Z,10.27
2018-02-22T23:28:23.167Z,10.87
2018-02-22T23:30:49.493Z,10.60
2018-02-22T23:33:16.052Z,9.80
2018-02-22T23:35:42.422Z,11.83
2018-02-22T23:38:09.013Z,10.07
2018-02-22T23:40:50.417Z,11.50
2018-02-22T23:43:16.639Z,10.27
2018-02-22T23:45:42.912Z,11.10
2018-02-22T23:48:09.413Z,9.50
2018-02-22T23:50:35.865Z,9.67
2018-02-22T23:53:02.289Z,9.67
2018-02-22T23:55:28.396Z,9.93
2018-02-22T23:57:54.332Z,9.80
